Time;durP1;ratioP1;P1;durP2;ratioP2;P2;SDS_P1;SDS_P2;PMS_P1;PMS_P2;Temp;Humidity;BMP_temperature;BMP_pressure;BME280_temperature;BME280_humidity;BME280_pressure;Samples;Min_cycle;Max_cycle;Signal;HPM_P1;HPM_P2
2023/09/22 00:01:16;;;;;;;2.90;1.47;;;;;;;20.28;100.00;95127.06;5052531;27;101771;-77
2023/09/22 00:03:43;;;;;;;2.40;1.40;;;;;;;20.32;100.00;95133.38;5036634;27;103201;-76
2023/09/22 00:06:10;;;;;;;2.50;1.30;;;;;;;20.26;100.00;95129.34;5033975;27;105295;-76
2023/09/22 00:08:39;;;;;;;2.70;1.17;;;;;;;20.30;100.00;95132.13;5032911;27;104763;-76
2023/09/22 00:11:07;;;;;;;1.10;1.07;;;;;;;20.26;100.00;95128.53;5033855;27;101985;-76
2023/09/22 00:13:34;;;;;;;3.50;1.20;;;;;;;20.23;100.00;95134.63;5051895;27;102685;-76
2023/09/22 00:16:01;;;;;;;3.10;1.23;;;;;;;20.20;100.00;95129.91;5033181;27;104996;-76
2023/09/22 00:18:29;;;;;;;1.30;1.20;;;;;;;20.18;100.00;95129.47;5033600;27;101913;-76
2023/09/22 00:20:56;;;;;;;1.43;1.20;;;;;;;20.11;100.00;95131.97;5033635;27;105244;-76
2023/09/22 00:23:23;;;;;;;1.40;1.30;;;;;;;20.12;100.00;95133.53;5033121;27;105596;-76
2023/09/22 00:25:51;;;;;;;1.17;1.17;;;;;;;20.07;100.00;95131.88;5036479;27;102193;-76
2023/09/22 00:28:18;;;;;;;2.07;1.17;;;;;;;20.06;100.00;95140.25;5032940;27;105663;-76
2023/09/22 00:30:46;;;;;;;1.20;1.10;;;;;;;19.97;100.00;95155.78;5033710;27;102127;-76
2023/09/22 00:33:12;;;;;;;2.60;0.77;;;;;;;19.91;100.00;95144.44;5016731;27;102945;-76
2023/09/22 00:35:40;;;;;;;0.60;0.60;;;;;;;19.81;100.00;95146.78;5032843;27;105592;-76
2023/09/22 00:38:07;;;;;;;1.63;0.63;;;;;;;19.75;100.00;95154.34;5033440;27;101897;-76
2023/09/22 00:40:34;;;;;;;0.83;0.60;;;;;;;19.66;100.00;95187.91;5033562;27;105645;-76
2023/09/22 00:43:10;;;;;;;0.53;0.50;;;;;;;19.50;100.00;95178.94;5032388;27;105742;-76
2023/09/22 00:45:46;;;;;;;0.93;0.60;;;;;;;19.35;100.00;95182.28;5036845;27;101847;-77
2023/09/22 00:48:21;;;;;;;0.50;0.50;;;;;;;19.23;100.00;95198.44;5032466;27;105606;-78
2023/09/22 00:50:48;;;;;;;0.60;0.40;;;;;;;19.13;100.00;95190.72;5033259;27;101873;-75
2023/09/22 00:53:16;;;;;;;0.97;0.50;;;;;;;18.99;100.00;95196.41;5033144;27;106196;-75
2023/09/22 00:55:43;;;;;;;1.17;0.40;;;;;;;18.90;100.00;95194.88;5032384;27;105485;-76
2023/09/22 00:58:12;;;;;;;0.33;0.33;;;;;;;18.81;100.00;95200.34;5032439;27;101897;-77
2023/09/22 01:00:41;;;;;;;1.90;0.53;;;;;;;18.74;100.00;95200.09;5032746;27;105057;-77
2023/09/22 01:03:08;;;;;;;0.30;0.30;;;;;;;18.67;100.00;95193.69;5032651;27;105592;-77
2023/09/22 01:05:36;;;;;;;0.57;0.33;;;;;;;18.62;100.00;95196.56;5032639;27;101933;-77
2023/09/22 01:08:03;;;;;;;1.27;0.30;;;;;;;18.61;100.00;95205.75;5053870;27;102567;-76
2023/09/22 01:10:36;;;;;;;0.67;0.40;;;;;;;18.48;100.00;95185.28;5032962;27;101977;-76
2023/09/22 01:13:03;;;;;;;0.40;0.40;;;;;;;18.42;100.00;95181.22;5032724;27;104137;-76
2023/09/22 01:15:34;;;;;;;0.40;0.40;;;;;;;18.42;100.00;95175.84;5032147;27;105549;-75
2023/09/22 01:18:01;;;;;;;0.40;0.40;;;;;;;18.41;100.00;95185.00;5032879;27;101825;-75
2023/09/22 01:20:28;;;;;;;0.63;0.63;;;;;;;18.38;100.00;95188.38;5032942;27;105274;-75
2023/09/22 01:22:57;;;;;;;0.40;0.40;;;;;;;18.37;100.00;95190.25;5032070;27;105792;-75
2023/09/22 01:25:24;;;;;;;1.03;0.43;;;;;;;18.36;100.00;95190.59;5032139;27;102038;-75
2023/09/22 01:27:51;;;;;;;0.50;0.50;;;;;;;18.38;100.00;95188.38;5032577;27;105457;-75
2023/09/22 01:30:18;;;;;;;0.60;0.60;;;;;;;18.34;100.00;95182.06;5035392;27;105522;-76
2023/09/22 01:32:45;;;;;;;0.47;0.47;;;;;;;18.38;100.00;95178.41;5032690;27;104454;-76
2023/09/22 01:35:12;;;;;;;0.70;0.30;;;;;;;18.46;100.00;95174.84;5031843;27;104976;-76
2023/09/22 01:37:47;;;;;;;0.50;0.50;;;;;;;18.41;100.00;95172.34;5032535;27;101935;-76
2023/09/22 01:40:17;;;;;;;0.40;0.40;;;;;;;18.38;100.00;95180.28;5032449;27;105700;-75
2023/09/22 01:42:45;;;;;;;0.83;0.50;;;;;;;18.38;100.00;95183.00;5050009;27;103107;-75
2023/09/22 01:45:12;;;;;;;1.03;0.50;;;;;;;18.39;100.00;95193.44;5032289;27;101948;-75
2023/09/22 01:47:40;;;;;;;0.70;0.50;;;;;;;18.34;100.00;95190.94;5032558;27;104793;-75
2023/09/22 01:50:09;;;;;;;0.53;0.50;;;;;;;18.31;100.00;95191.53;5031841;27;102846;-75
2023/09/22 01:52:37;;;;;;;0.60;0.50;;;;;;;18.31;100.00;95188.84;5035633;27;101863;-76
2023/09/22 01:55:05;;;;;;;0.80;0.50;;;;;;;18.32;100.00;95187.75;5031562;27;105783;-75
2023/09/22 01:57:34;;;;;;;0.53;0.30;;;;;;;18.29;100.00;95190.28;5032224;27;102054;-74
2023/09/22 02:00:01;;;;;;;0.60;0.50;;;;;;;18.24;100.00;95179.72;5031932;27;105186;-74
2023/09/22 02:02:28;;;;;;;0.43;0.43;;;;;;;18.19;100.00;95169.13;5031556;27;105399;-74
2023/09/22 02:04:55;;;;;;;0.43;0.43;;;;;;;18.21;100.00;95183.84;5032228;27;101917;-74
2023/09/22 02:07:23;;;;;;;0.50;0.50;;;;;;;18.17;100.00;95171.38;5032133;27;105689;-74
2023/09/22 02:09:50;;;;;;;0.77;0.70;;;;;;;18.05;100.00;95179.38;5015579;27;105950;-75
2023/09/22 02:12:17;;;;;;;1.50;0.80;;;;;;;18.00;100.00;95175.00;5035897;27;101999;-75
2023/09/22 02:14:45;;;;;;;1.97;0.70;;;;;;;18.08;100.00;95174.13;5038476;27;104762;-75
2023/09/22 02:17:13;;;;;;;1.73;0.70;;;;;;;18.09;100.00;95174.94;5035491;27;101919;-75
2023/09/22 02:19:39;;;;;;;0.83;0.60;;;;;;;18.11;100.00;95183.44;5053798;27;102629;-75
2023/09/22 02:22:06;;;;;;;0.80;0.80;;;;;;;18.14;100.00;95180.13;5034725;27;105589;-77
2023/09/22 02:24:34;;;;;;;0.40;0.40;;;;;;;18.12;100.00;95179.66;5035124;27;101986;-77
2023/09/22 02:27:02;;;;;;;0.63;0.63;;;;;;;18.06;100.00;95189.03;5035656;27;105460;-77
2023/09/22 02:29:30;;;;;;;0.97;0.77;;;;;;;18.02;100.00;95182.72;5034857;27;105810;-75
2023/09/22 02:31:58;;;;;;;1.17;0.80;;;;;;;18.00;100.00;95184.94;5035361;27;101911;-74
2023/09/22 02:34:25;;;;;;;0.87;0.70;;;;;;;18.02;100.00;95188.88;5035439;27;104986;-74
2023/09/22 02:36:52;;;;;;;0.60;0.60;;;;;;;17.97;100.00;95191.75;5037869;27;102329;-76
2023/09/22 02:39:19;;;;;;;2.50;0.60;;;;;;;17.94;100.00;95188.94;5035090;27;105015;-77
2023/09/22 02:41:46;;;;;;;1.10;0.83;;;;;;;17.91;100.00;95193.06;5034719;27;105954;-78
2023/09/22 02:44:15;;;;;;;1.67;0.77;;;;;;;17.90;100.00;95191.50;5035071;27;101964;-78
2023/09/22 02:46:42;;;;;;;0.70;0.70;;;;;;;17.86;100.00;95184.38;5035195;27;103816;-78
2023/09/22 02:49:11;;;;;;;0.70;0.70;;;;;;;17.90;100.00;95196.06;5034402;27;105650;-78
2023/09/22 02:51:38;;;;;;;0.70;0.70;;;;;;;17.88;100.00;95192.94;5035140;27;102044;-75
2023/09/22 02:54:05;;;;;;;1.57;0.70;;;;;;;17.85;100.00;95199.75;5034770;27;105597;-76
2023/09/22 02:56:32;;;;;;;1.03;0.80;;;;;;;17.84;100.00;95205.44;5056122;27;103078;-76
2023/09/22 02:58:59;;;;;;;0.60;0.60;;;;;;;17.80;100.00;95196.44;5053237;27;101922;-76
2023/09/22 03:01:26;;;;;;;0.70;0.70;;;;;;;17.83;100.00;95176.97;5034196;27;105373;-76
2023/09/22 03:03:53;;;;;;;0.70;0.70;;;;;;;17.78;100.00;95177.97;5034979;27;101961;-76
2023/09/22 03:06:21;;;;;;;0.60;0.60;;;;;;;17.77;100.00;95191.72;5034761;27;104392;-77
2023/09/22 03:08:48;;;;;;;0.50;0.50;;;;;;;17.77;100.00;95202.47;5034133;27;105042;-76
2023/09/22 03:11:15;;;;;;;0.70;0.70;;;;;;;17.71;100.00;95209.16;5034791;27;102039;-76
2023/09/22 03:13:42;;;;;;;0.60;0.60;;;;;;;17.70;100.00;95205.66;5034879;27;105206;-76
2023/09/22 03:16:10;;;;;;;0.60;0.60;;;;;;;17.68;100.00;95212.47;5034171;27;104422;-76
2023/09/22 03:18:37;;;;;;;0.73;0.73;;;;;;;17.69;100.00;95219.44;5038070;27;101941;-74
2023/09/22 03:21:05;;;;;;;0.67;0.67;;;;;;;17.64;100.00;95206.16;5033708;27;104994;-74
2023/09/22 03:23:33;;;;;;;1.30;0.57;;;;;;;17.70;100.00;95194.91;5034110;27;102161;-74
2023/09/22 03:26:04;;;;;;;1.13;0.60;;;;;;;17.71;100.00;95209.91;5015846;28;105702;-75
2023/09/22 03:28:31;;;;;;;0.83;0.80;;;;;;;17.69;100.00;95214.84;5010409;28;105456;-75
2023/09/22 03:30:58;;;;;;;0.60;0.60;;;;;;;17.72;100.00;95222.25;5011060;28;101906;-75
2023/09/22 03:33:26;;;;;;;0.77;0.77;;;;;;;17.64;100.00;95209.66;5011050;28;104885;-76
2023/09/22 03:35:52;;;;;;;1.00;0.70;;;;;;;17.58;100.00;95210.13;5011598;28;103240;-75
2023/09/22 03:38:20;;;;;;;1.10;0.60;;;;;;;17.53;100.00;95226.44;5011001;28;101894;-75
2023/09/22 03:40:52;;;;;;;0.70;0.70;;;;;;;17.43;100.00;95235.66;5013453;28;105563;-74
2023/09/22 03:43:21;;;;;;;0.73;0.60;;;;;;;17.36;100.00;95229.16;5010994;28;101947;-74
2023/09/22 03:45:53;;;;;;;0.77;0.77;;;;;;;17.36;100.00;95229.16;5010866;28;104881;-74
2023/09/22 03:48:20;;;;;;;0.73;0.73;;;;;;;17.36;100.00;95234.53;5010045;28;105556;-74
2023/09/22 03:50:47;;;;;;;0.97;0.87;;;;;;;17.31;100.00;95221.25;5010673;28;101994;-76
2023/09/22 03:53:14;;;;;;;0.73;0.73;;;;;;;17.22;100.00;95226.66;5010617;28;103903;-75
2023/09/22 03:55:41;;;;;;;0.63;0.63;;;;;;;17.18;100.00;95238.38;5010110;28;104467;-75
2023/09/22 03:58:10;;;;;;;0.90;0.73;;;;;;;17.19;100.00;95235.38;5010629;28;102100;-76
2023/09/22 04:00:37;;;;;;;0.70;0.70;;;;;;;17.06;100.00;95225.59;5010373;28;102978;-74
2023/09/22 04:03:07;;;;;;;0.73;0.70;;;;;;;17.06;100.00;95230.19;5013384;28;105303;-74
2023/09/22 04:05:35;;;;;;;0.77;0.60;;;;;;;16.99;100.00;95232.53;5010553;28;105174;-74
2023/09/22 04:08:01;;;;;;;0.70;0.70;;;;;;;16.92;100.00;95240.28;5009916;28;105818;-74
2023/09/22 04:10:28;;;;;;;1.07;0.63;;;;;;;16.90;100.00;95231.78;5010307;28;101890;-73
2023/09/22 04:12:56;;;;;;;0.70;0.70;;;;;;;16.83;100.00;95228.75;5010634;28;104151;-73
2023/09/22 04:15:24;;;;;;;0.57;0.57;;;;;;;16.65;100.00;95235.25;5009814;28;105310;-73
2023/09/22 04:17:51;;;;;;;0.70;0.70;;;;;;;16.60;100.00;95241.56;5010023;28;102004;-74
2023/09/22 04:20:28;;;;;;;1.27;0.77;;;;;;;16.59;100.00;95223.09;5010128;28;105743;-77
2023/09/22 04:22:55;;;;;;;0.60;0.50;;;;;;;16.57;100.00;95225.31;5009419;28;105660;-77
2023/09/22 04:25:29;;;;;;;0.40;0.40;;;;;;;16.56;100.00;95226.41;5022789;28;103985;-76
2023/09/22 04:27:57;;;;;;;0.50;0.50;;;;;;;16.51;100.00;95224.66;5029505;28;105135;-77
2023/09/22 04:30:26;;;;;;;0.50;0.50;;;;;;;16.57;100.00;95228.78;5030184;28;101913;-76
2023/09/22 04:32:54;;;;;;;0.53;0.53;;;;;;;16.59;100.00;95231.94;5029924;27;105070;-77
2023/09/22 04:35:21;;;;;;;0.50;0.50;;;;;;;16.53;100.00;95246.63;5029909;27;102757;-77
2023/09/22 04:37:48;;;;;;;0.80;0.63;;;;;;;16.53;100.00;95248.50;5030148;28;101932;-77
2023/09/22 04:40:24;;;;;;;0.60;0.60;;;;;;;16.58;100.00;95257.19;5029938;28;104190;-78
2023/09/22 04:42:51;;;;;;;2.37;0.63;;;;;;;16.57;100.00;95252.91;5029226;28;105587;-77
2023/09/22 04:45:19;;;;;;;0.70;0.70;;;;;;;16.52;100.00;95246.94;5034375;27;102060;-76
2023/09/22 04:47:49;;;;;;;1.13;0.80;;;;;;;16.44;100.00;95261.13;5029510;28;104376;-78
2023/09/22 04:50:17;;;;;;;0.90;0.90;;;;;;;16.49;100.00;95256.41;5029712;28;101908;-77
2023/09/22 04:52:45;;;;;;;0.80;0.80;;;;;;;16.50;100.00;95262.53;5030029;28;104802;-77
2023/09/22 04:55:12;;;;;;;1.13;1.03;;;;;;;16.50;100.00;95259.88;5029053;28;105215;-77
2023/09/22 04:57:40;;;;;;;0.90;0.90;;;;;;;16.66;100.00;95272.53;5031117;28;101856;-77
2023/09/22 05:00:13;;;;;;;1.00;0.80;;;;;;;17.09;100.00;95267.94;5012719;28;106286;-77
2023/09/22 05:02:41;;;;;;;0.70;0.70;;;;;;;16.53;100.00;95281.53;5029194;28;105383;-77
2023/09/22 05:05:10;;;;;;;1.23;0.90;;;;;;;16.34;100.00;95285.53;5029577;28;102010;-77
2023/09/22 05:07:37;;;;;;;0.87;0.80;;;;;;;16.34;100.00;95282.84;5032491;28;105669;-77
2023/09/22 05:10:05;;;;;;;0.83;0.77;;;;;;;16.29;100.00;95302.56;5029480;28;101830;-77
2023/09/22 05:12:32;;;;;;;0.80;0.80;;;;;;;16.00;100.00;95306.91;5029696;28;104940;-77
2023/09/22 05:15:02;;;;;;;0.70;0.70;;;;;;;15.93;100.00;95319.97;5028972;28;105457;-76
2023/09/22 05:17:29;;;;;;;1.00;0.90;;;;;;;16.00;100.00;95328.34;5029505;28;102113;-76
2023/09/22 05:19:55;;;;;;;0.87;0.80;;;;;;;15.88;100.00;95333.50;5029504;28;105284;-77
2023/09/22 05:22:24;;;;;;;1.57;0.80;;;;;;;15.78;100.00;95328.41;5028690;28;105539;-76
2023/09/22 05:24:51;;;;;;;1.97;0.87;;;;;;;15.98;100.00;95328.66;5028866;28;101956;-76
2023/09/22 05:27:18;;;;;;;1.03;0.80;;;;;;;15.81;100.00;95341.97;5029367;28;104893;-76
2023/09/22 05:29:45;;;;;;;3.13;1.00;;;;;;;16.02;100.00;95343.03;5032099;28;105070;-76
2023/09/22 05:32:12;;;;;;;3.63;1.13;;;;;;;16.22;100.00;95347.03;5029152;28;105515;-76
2023/09/22 05:34:39;;;;;;;1.00;0.80;;;;;;;15.96;100.00;95343.50;5028892;28;105825;-76
2023/09/22 05:37:06;;;;;;;1.20;0.90;;;;;;;15.99;100.00;95351.72;5030131;27;101865;-76
2023/09/22 05:39:36;;;;;;;1.03;0.60;;;;;;;15.49;100.00;95349.53;5029294;28;105284;-76
2023/09/22 05:42:06;;;;;;;0.63;0.63;;;;;;;15.37;100.00;95349.31;5029686;28;104255;-76
2023/09/22 05:44:33;;;;;;;0.70;0.70;;;;;;;15.25;100.00;95365.06;5030056;27;102174;-76
2023/09/22 05:47:00;;;;;;;1.50;0.60;;;;;;;15.30;100.00;95367.63;5030405;28;102610;-76
2023/09/22 05:49:27;;;;;;;0.80;0.80;;;;;;;15.21;100.00;95367.56;5028477;28;105250;-76
2023/09/22 05:51:54;;;;;;;0.90;0.70;;;;;;;15.45;100.00;95375.34;5032594;28;102019;-76
2023/09/22 05:54:21;;;;;;;0.90;0.90;;;;;;;15.71;100.00;95384.34;5028380;28;105734;-76
2023/09/22 05:56:50;;;;;;;0.70;0.70;;;;;;;15.64;100.00;95390.13;5030320;28;101905;-76
2023/09/22 05:59:17;;;;;;;0.77;0.77;;;;;;;15.26;100.00;95380.84;5028734;28;104819;-76
2023/09/22 06:01:44;;;;;;;1.07;0.80;;;;;;;15.22;100.00;95398.63;5028134;28;106273;-76
2023/09/22 06:04:13;;;;;;;1.10;0.80;;;;;;;15.23;100.00;95402.88;5030302;27;101955;-76
2023/09/22 06:06:42;;;;;;;1.07;0.70;;;;;;;15.20;100.00;95413.41;5028730;28;105776;-76
2023/09/22 06:09:10;;;;;;;1.80;0.80;;;;;;;15.16;100.00;95413.22;5028395;28;103784;-76
2023/09/22 06:11:39;;;;;;;1.50;1.40;;;;;;;15.19;100.00;95414.50;5028782;28;101904;-76
2023/09/22 06:14:08;;;;;;;1.97;1.80;;;;;;;15.06;100.00;95423.38;5032673;28;102912;-76
2023/09/22 06:16:35;;;;;;;2.17;1.97;;;;;;;15.02;100.00;95414.34;5028484;28;101889;-76
2023/09/22 06:19:03;;;;;;;3.77;1.60;;;;;;;15.03;100.00;95418.59;5028739;28;104152;-76
2023/09/22 06:21:31;;;;;;;3.50;1.20;;;;;;;15.25;100.00;95421.31;5029242;27;101866;-76
2023/09/22 06:23:58;;;;;;;2.27;1.20;;;;;;;15.59;100.00;95427.78;5028939;28;101984;-76
2023/09/22 06:26:25;;;;;;;2.77;1.03;;;;;;;15.67;100.00;95424.38;5048153;27;102859;-76
2023/09/22 06:28:52;;;;;;;3.13;0.83;;;;;;;15.75;100.00;95410.22;5014592;27;106522;-76
2023/09/22 06:31:21;;;;;;;0.80;0.80;;;;;;;15.91;100.00;95410.66;5031701;27;102198;-76
2023/09/22 06:33:49;;;;;;;1.37;0.90;;;;;;;15.96;100.00;95411.31;5031780;27;104806;-76
2023/09/22 06:36:17;;;;;;;1.70;0.97;;;;;;;15.98;100.00;95427.09;5034620;27;105576;-76
2023/09/22 06:38:44;;;;;;;1.20;1.10;;;;;;;15.93;100.00;95432.56;5031959;27;104114;-76
2023/09/22 06:41:17;;;;;;;2.37;1.10;;;;;;;15.84;100.00;95437.09;5031164;27;105723;-76
2023/09/22 06:43:46;;;;;;;3.43;1.40;;;;;;;15.81;100.00;95430.44;5031729;27;102022;-76
2023/09/22 06:46:14;;;;;;;1.83;1.00;;;;;;;15.93;100.00;95433.38;5031376;27;104962;-76
2023/09/22 06:48:42;;;;;;;2.40;1.10;;;;;;;16.10;100.00;95443.41;5031171;27;105150;-76
2023/09/22 06:51:18;;;;;;;8.67;1.10;;;;;;;16.22;100.00;95451.66;5031781;27;101988;-76
2023/09/22 06:53:46;;;;;;;3.60;1.43;;;;;;;16.39;100.00;95452.56;5031732;27;105320;-76
2023/09/22 06:56:13;;;;;;;4.73;1.40;;;;;;;16.49;100.00;95456.88;5034527;27;105036;-76
2023/09/22 06:58:41;;;;;;;6.33;1.70;;;;;;;16.41;100.00;95460.31;5034749;27;105438;-76
2023/09/22 07:01:09;;;;;;;7.93;1.47;;;;;;;16.36;100.00;95461.19;5034117;27;104050;-76
2023/09/22 07:03:37;;;;;;;19.27;2.93;;;;;;;16.27;100.00;95454.22;5034764;27;102024;-76
2023/09/22 07:06:07;;;;;;;15.30;3.07;;;;;;;16.28;100.00;95461.16;5034880;27;105551;-76
2023/09/22 07:08:34;;;;;;;14.67;3.10;;;;;;;16.15;100.00;95462.03;5052528;27;102903;-76
2023/09/22 07:11:02;;;;;;;15.57;2.73;;;;;;;16.17;100.00;95471.38;5034689;27;101805;-76
2023/09/22 07:13:30;;;;;;;2.73;1.37;;;;;;;16.11;100.00;95469.91;5034638;27;105107;-76
2023/09/22 07:15:57;;;;;;;3.60;1.23;;;;;;;15.93;100.00;95475.47;5034308;27;105008;-76
2023/09/22 07:18:26;;;;;;;2.40;1.20;;;;;;;15.67;100.00;95483.34;5038049;27;101912;-76
2023/09/22 07:20:53;;;;;;;1.80;1.37;;;;;;;15.63;100.00;95484.22;5034045;27;104687;-76
2023/09/22 07:23:22;;;;;;;2.80;1.57;;;;;;;15.67;100.00;95495.94;5034562;27;101997;-76
2023/09/22 07:26:00;;;;;;;5.63;1.50;;;;;;;15.95;100.00;95506.25;5034175;27;105115;-76
2023/09/22 07:28:27;;;;;;;6.43;2.00;;;;;;;16.04;100.00;95495.59;5052175;27;103130;-76
2023/09/22 07:30:55;;;;;;;1.93;1.37;;;;;;;16.05;100.00;95505.22;5034584;27;102019;-77
2023/09/22 07:33:24;;;;;;;6.40;1.80;;;;;;;16.29;100.00;95495.72;5052929;27;102828;-77
2023/09/22 07:35:51;;;;;;;1.43;1.30;;;;;;;16.11;100.00;95487.88;5033933;27;104552;-77
2023/09/22 07:38:19;;;;;;;3.67;1.60;;;;;;;16.16;100.00;95485.09;5034588;27;101939;-77
2023/09/22 07:40:47;;;;;;;2.40;1.60;;;;;;;16.20;100.00;95494.09;5055380;27;102515;-76
2023/09/22 07:43:14;;;;;;;2.83;1.23;;;;;;;16.29;100.00;95484.22;5034133;27;101999;-76
2023/09/22 07:45:41;;;;;;;1.83;0.80;;;;;;;16.08;100.00;95489.28;5034342;27;103731;-76
2023/09/22 07:48:08;;;;;;;9.00;2.00;;;;;;;16.53;100.00;95488.19;5033668;27;103964;-77
2023/09/22 07:50:36;;;;;;;3.27;0.70;;;;;;;15.98;100.00;95486.09;5034312;27;101961;-77
2023/09/22 07:53:03;;;;;;;3.13;1.20;;;;;;;16.15;100.00;95483.50;5034273;27;105178;-77
2023/09/22 07:55:31;;;;;;;2.13;0.80;;;;;;;15.60;100.00;95485.63;5033577;27;105595;-77
2023/09/22 07:58:02;;;;;;;2.20;0.87;;;;;;;15.66;100.00;95487.13;5033935;27;102046;-77
2023/09/22 08:00:30;;;;;;;3.30;1.07;;;;;;;15.91;100.00;95483.81;5052488;27;102854;-77
2023/09/22 08:02:59;;;;;;;2.23;0.83;;;;;;;15.47;100.00;95488.38;5036962;27;105479;-77
2023/09/22 08:05:27;;;;;;;2.07;0.80;;;;;;;15.51;100.00;95500.84;5033966;27;105292;-77
2023/09/22 08:07:54;;;;;;;3.40;1.20;;;;;;;15.90;100.00;95510.94;5033019;27;105252;-77
2023/09/22 08:10:22;;;;;;;1.17;0.80;;;;;;;15.82;100.00;95501.75;5034065;27;102048;-77
2023/09/22 08:12:50;;;;;;;1.63;0.90;;;;;;;15.96;100.00;95496.34;5034378;27;104132;-77
2023/09/22 08:15:19;;;;;;;0.80;0.80;;;;;;;15.70;100.00;95488.06;5033154;27;104661;-77
2023/09/22 08:17:47;;;;;;;1.50;0.80;;;;;;;15.77;100.00;95482.31;5034104;27;101858;-77
2023/09/22 08:20:15;;;;;;;1.47;0.80;;;;;;;15.59;100.00;95469.88;5033849;27;104185;-77
2023/09/22 08:22:42;;;;;;;3.03;0.90;;;;;;;16.04;100.00;95472.25;5032993;27;105603;-77
2023/09/22 08:25:11;;;;;;;1.80;1.13;;;;;;;16.08;100.00;95477.78;5037051;27;101996;-77
2023/09/22 08:27:38;;;;;;;2.87;1.00;;;;;;;16.24;100.00;95468.25;5032849;27;105649;-77
2023/09/22 08:30:10;;;;;;;1.57;0.97;;;;;;;16.38;100.00;95474.31;5033565;27;101998;-77
2023/09/22 08:32:40;;;;;;;1.60;0.70;;;;;;;16.37;100.00;95476.22;5033447;27;105017;-77
2023/09/22 08:35:10;;;;;;;1.40;0.97;;;;;;;16.26;100.00;95479.47;5032916;27;105244;-77
2023/09/22 08:37:40;;;;;;;1.70;0.60;;;;;;;15.68;100.00;95478.75;5033547;27;101890;-77
2023/09/22 08:40:14;;;;;;;0.70;0.70;;;;;;;15.87;100.00;95484.75;5033604;27;105321;-77
2023/09/22 08:42:44;;;;;;;1.60;0.70;;;;;;;15.79;100.00;95480.09;5032575;27;105527;-77
2023/09/22 08:45:12;;;;;;;0.60;0.60;;;;;;;15.68;100.00;95473.38;5033302;27;101779;-77
2023/09/22 08:47:42;;;;;;;0.67;0.60;;;;;;;15.75;100.00;95463.06;5036398;27;104220;-77
2023/09/22 08:50:13;;;;;;;0.80;0.70;;;;;;;15.80;100.00;95468.31;5032926;27;101972;-77
2023/09/22 08:52:41;;;;;;;1.13;0.60;;;;;;;16.01;100.00;95459.44;5051773;27;102833;-77
2023/09/22 08:55:11;;;;;;;1.10;0.87;;;;;;;16.31;100.00;95463.25;5032551;27;105969;-77
2023/09/22 08:57:40;;;;;;;0.67;0.67;;;;;;;16.24;100.00;95450.25;5033086;27;101982;-77
2023/09/22 09:00:12;;;;;;;0.70;0.50;;;;;;;16.14;100.00;95447.06;5032776;27;105436;-77
2023/09/22 09:02:42;;;;;;;1.00;0.70;;;;;;;16.32;100.00;95451.41;5032595;27;104257;-77
2023/09/22 09:05:20;;;;;;;0.80;0.80;;;;;;;16.55;100.00;95455.63;5033105;27;101902;-77
2023/09/22 09:07:47;;;;;;;0.60;0.60;;;;;;;16.15;100.00;95446.75;5035804;27;104395;-77
2023/09/22 09:10:27;;;;;;;0.50;0.50;;;;;;;16.12;100.00;95447.34;5033250;27;102478;-77
2023/09/22 09:12:54;;;;;;;0.73;0.63;;;;;;;16.39;100.00;95454.47;5033037;27;105526;-77
2023/09/22 09:15:25;;;;;;;0.70;0.70;;;;;;;16.31;100.00;95456.00;5032387;27;105159;-77
2023/09/22 09:18:09;;;;;;;1.70;0.87;;;;;;;16.11;100.00;95455.72;5032966;27;102101;-77
2023/09/22 09:20:40;;;;;;;0.87;0.50;;;;;;;16.16;100.00;95464.44;5032296;27;105504;-77
2023/09/22 09:23:18;;;;;;;0.93;0.73;;;;;;;16.09;100.00;95461.38;5032051;27;104029;-77
2023/09/22 09:25:47;;;;;;;0.67;0.63;;;;;;;16.23;100.00;95462.09;5032283;27;101960;-77
2023/09/22 09:28:16;;;;;;;2.10;0.80;;;;;;;16.15;100.00;95460.16;5050983;27;102970;-77
2023/09/22 09:30:52;;;;;;;1.00;0.80;;;;;;;16.22;100.00;95462.41;5035542;27;105893;-77
2023/09/22 09:33:22;;;;;;;0.87;0.87;;;;;;;16.22;100.00;95465.06;5032603;27;105058;-77
2023/09/22 09:35:50;;;;;;;0.80;0.80;;;;;;;16.25;100.00;95462.56;5050214;27;103275;-77
2023/09/22 09:38:18;;;;;;;1.07;0.63;;;;;;;16.10;100.00;95457.63;5032638;27;102073;-77
2023/09/22 09:40:45;;;;;;;1.30;0.80;;;;;;;16.21;100.00;95460.81;5032526;27;105244;-77
2023/09/22 09:43:13;;;;;;;0.97;0.83;;;;;;;16.16;100.00;95460.94;5031605;27;105544;-77
2023/09/22 09:45:45;;;;;;;1.10;0.77;;;;;;;16.27;100.00;95454.22;5033091;27;101972;-77
2023/09/22 09:48:17;;;;;;;0.97;0.70;;;;;;;16.50;100.00;95443.16;5032526;27;105088;-77
2023/09/22 09:50:50;;;;;;;1.00;0.83;;;;;;;16.59;100.00;95441.31;5031974;27;105071;-77
2023/09/22 09:53:32;;;;;;;0.93;0.70;;;;;;;16.61;100.00;95422.97;5035955;27;102188;-77
2023/09/22 09:56:02;;;;;;;2.10;0.73;;;;;;;16.44;100.00;95420.25;5031811;27;105154;-77
2023/09/22 09:58:32;;;;;;;0.93;0.87;;;;;;;16.42;100.00;95443.94;5032327;27;102001;-77
2023/09/22 10:01:00;;;;;;;1.43;0.80;;;;;;;16.67;100.00;95450.50;5032018;27;105143;-77
2023/09/22 10:03:28;;;;;;;0.80;0.80;;;;;;;16.68;100.00;95454.75;5049630;27;102765;-77
2023/09/22 10:05:57;;;;;;;1.27;0.83;;;;;;;16.56;100.00;95443.81;5032485;27;101986;-77
2023/09/22 10:08:26;;;;;;;1.10;0.90;;;;;;;16.04;100.00;95439.25;5032257;27;105058;-77
2023/09/22 10:10:55;;;;;;;1.43;0.77;;;;;;;16.00;100.00;95449.81;5031406;27;105114;-77
2023/09/22 10:13:22;;;;;;;2.43;1.07;;;;;;;15.91;100.00;95438.25;5032258;27;102065;-77
2023/09/22 10:15:59;;;;;;;0.80;0.80;;;;;;;16.09;100.00;95447.97;5053272;27;102654;-77
2023/09/22 10:18:47;;;;;;;2.17;0.90;;;;;;;16.05;100.00;95438.16;5032195;27;101883;-77
2023/09/22 10:21:46;;;;;;;0.80;0.80;;;;;;;15.95;100.00;95430.38;5032183;27;105873;-77
2023/09/22 10:24:20;;;;;;;1.93;1.10;;;;;;;16.01;100.00;95432.63;5031415;27;102776;-77
2023/09/22 10:27:13;;;;;;;2.33;0.77;;;;;;;15.95;100.00;95433.84;5032138;27;102032;-77
2023/09/22 10:29:51;;;;;;;2.00;0.73;;;;;;;15.96;100.00;95440.03;5029465;27;104466;-77
2023/09/22 10:32:27;;;;;;;1.77;1.00;;;;;;;15.80;100.00;95444.19;5032642;27;105598;-77
2023/09/22 10:34:56;;;;;;;1.20;1.10;;;;;;;15.84;100.00;95450.50;5035716;27;101926;-77
2023/09/22 10:37:27;;;;;;;1.07;1.00;;;;;;;15.91;100.00;95465.06;5035256;27;105325;-77
2023/09/22 10:39:56;;;;;;;1.53;1.00;;;;;;;16.06;100.00;95463.88;5056471;27;103156;-77
2023/09/22 10:42:25;;;;;;;1.60;0.80;;;;;;;15.87;100.00;95466.75;5035583;27;104011;-77
2023/09/22 10:44:59;;;;;;;0.63;0.63;;;;;;;15.79;100.00;95461.34;5034702;27;105641;-77
2023/09/22 10:47:38;;;;;;;0.70;0.70;;;;;;;15.90;100.00;95460.00;5035304;27;101950;-77
2023/09/22 10:50:19;;;;;;;1.47;0.97;;;;;;;15.75;100.00;95458.47;5035246;27;105160;-77
2023/09/22 10:52:55;;;;;;;0.83;0.80;;;;;;;15.67;100.00;95461.09;5034360;27;106092;-77
2023/09/22 10:55:27;;;;;;;1.60;1.00;;;;;;;15.71;100.00;95462.88;5035219;27;101870;-77
2023/09/22 10:57:54;;;;;;;0.77;0.77;;;;;;;15.58;100.00;95454.91;5035150;27;103991;-77
2023/09/22 11:00:22;;;;;;;0.87;0.60;;;;;;;15.58;100.00;95470.97;5034470;27;105993;-77
2023/09/22 11:02:49;;;;;;;0.70;0.70;;;;;;;15.56;100.00;95482.00;5038482;27;101941;-77
2023/09/22 11:05:16;;;;;;;0.80;0.63;;;;;;;15.55;100.00;95475.06;5034488;27;104245;-77
2023/09/22 11:07:44;;;;;;;0.80;0.80;;;;;;;15.60;100.00;95488.31;5053412;27;101829;-77
2023/09/22 11:10:20;;;;;;;0.80;0.80;;;;;;;15.52;100.00;95482.88;5034977;27;105996;-77
2023/09/22 11:12:49;;;;;;;0.90;0.70;;;;;;;15.45;100.00;95487.88;5034411;27;105256;-77
2023/09/22 11:15:16;;;;;;;1.53;0.93;;;;;;;15.32;100.00;95494.03;5034721;27;101917;-77
2023/09/22 11:17:46;;;;;;;0.80;0.80;;;;;;;15.35;100.00;95496.13;5034827;27;105057;-77
2023/09/22 11:20:18;;;;;;;0.90;0.80;;;;;;;15.34;100.00;95502.59;5034281;27;104057;-77
2023/09/22 11:22:46;;;;;;;0.90;0.90;;;;;;;15.23;100.00;95496.63;5038274;27;101838;-77
2023/09/22 11:25:13;;;;;;;0.70;0.70;;;;;;;15.07;100.00;95499.91;5033375;27;105661;-77